Decoded Metar for KSAC (SACRAMENTO in CA, USA) (IATA:SAC) | Meteo·Mobile Aviation Weather
aviador You're here:

KSAC Decoded Metar

SACRAMENTO in CA, USA
Report Time2019-02-16 16:53:00
UTC Time2019-02-16 17:09:54
Flight Rules vfr VFR
Wind200° at 08 kt
W.Decomp.*RWY 20: 7.8 kt HW 1.9 kt LCW
RWY 16: 7.2 kt HW 3.5 kt RCW
RWY 12: 3.3 kt HW 7.3 kt RCW
W.Rank200° ranks 2
Current wind is above 200° avg. (6.2)
Visibility9999 m
Phenomena:N/A
Clouds:N/A
Expected CloudBase > 1,200 ft AGL from Temp-Dew spread
CeilingNone
Temp08°C (ISA -7)
Dew Point05°C (82% RH)
AAT4.0°C
QNH1021 hPa
Density Alt-948 ft
Elevation36 ft
Report Wrong Elevation
Raw Report
KSAC 161653Z 20008KT 10SM CLR 08/05 A3015 RMK AO2 SLP207
T00830050=

Extra information for KSAC:More info

Metar Taf Metar & Taf Last 4 Metars F.Rules Stats Wind Profile Meteogram Temp Stats Airport Information Weather charts Add Link Nearby VenuesMetar ALERT Operation Metar Decoded Social comments

AIRNAV info for KSAC